Airport ID:KO69
Update Time (UTC):16/01/2019 17:20
Wind Speed (Knots):6
Wind Direction (Magnetic):100
Temperature (°C):13
Dew Point (°C):12
Humidity (%):95
Altimeter (inHg):29.91
Density Altitude (Feet):
Visibility (Miles):10+
Clouds (Hundreds of feet):OVC035
Present Weather:
METAR:METAR KO69 161715Z AUTO 13008G13KT 10SM BKN033 OVC039 13/12 A2991 RMK A01

The data displayed is for advisory purposes only and is not to be used for flight planning or operations.

This page is not automatically refreshed. Reload the page to see current data.